Rockwood, MI (48173)

10:25 AM EDT on September 01, 2015 (GMT -0400)
Monroe Cnty Skywarn | | Change Station
CLOSE
Current Station
Personal Weather Station
Location: S Rockwood, MI
Elevation: 584 ft
Nearby Weather Stations

Elev 584 ft 42.06 °N, 83.26 °W | Updated 40 seconds ago

Clear
Clear
76.5 °F
Feels Like 78 °F
N
1.7
Wind Variable Wind from WSW
Gusts 3.4 mph

Today
High -- | Low -- °F
--% Chance of Precip.
Yesterday
High -- | Low -- °F
Precip. -- in
6:58 AM 8:06 PM
Waning Gibbous, 88% visible
Pressure 30.10 in
Visibility 7.0 miles
Clouds Clear
Heat Index 78 °F
Dew Point 71 °F
Humidity 83%
Rainfall 0.00 in
Snow Depth Not available.
UV 4 out of 12
Pollen 7.00 out of 12
Air Quality Not available.
Flu Activity Not available.
METAR KONZ 011414Z AUTO 00000KT 7SM CLR 24/22 A3010 RMK AO2
Pressure 30.10 in
Visibility 7.0 miles
Clouds Clear
Heat Index 78 °F
Dew Point 71 °F
Humidity 83%
Rainfall 0.00 in
Snow Depth Not available.
UV 4 out of 12
Pollen 7.00 out of 12
Air Quality Not available.
Flu Activity Not available.
METAR KONZ 011414Z AUTO 00000KT 7SM CLR 24/22 A3010 RMK AO2

10-Day Weather Forecast

×

Almanac

Astronomy

Sep. 01, 2015 Rise Set
Actual Time
Civil Twilight
Nautical Twilight
Astronomical Twilight
Moon
Length of Visible Light
Length of Day
Tomorrow will be .
, % of the Moon is Illuminated

Today's Extremes

State Highs State Lows

Community

WunderPhotos

Upload Photos

1,851,512 photos uploaded!

WunderBlogs® & News

Nearby

Air Quality

  Air Quality AQ Index Pollutant
Not available.

Snow Depth

Station Depth Elevation

Earthquake Activity

City Distance Mag. Time & Date
Minimum magnitude displayed is 2.5.

Coastal Water Temperatures

Place Temperature

Stations

Nearby Weather Stations

Station Location Temp. Windchill Dew Point Humidity Wind Precip. Elev Updated Type